Terminal Aerodrome Forecast
Issued by NWS

Home | Current Version | Previous Version | Text Only | Print | Product List | Glossary On
Versions: 1 2 3 4 5 6 7 8 9 10 11 12 13 14 15 16 17
593
FTUS44 KLZK 212340
TAFBPK
TAF
KBPK 212340Z 2200/2224 20005KT P6SM VCTS SCT100CB SCT250
     FM220200 00000KT P6SM SCT250
     FM220900 00000KT 4SM BR SCT250
      TEMPO 2210/2213 1SM BR BKN005
     FM221500 13004KT P6SM SCT020 BKN060=

USA.gov is the U.S. government's official web portal to all federal, state and local government web resources and services.